createdAt,value
2022-09-02T00:00:06.836Z,74.65
2022-09-02T00:02:57.292Z,74.57
2022-09-02T00:05:46.288Z,75.59
2022-09-02T00:08:34.681Z,75.31
2022-09-02T00:11:27.567Z,75.18
2022-09-02T00:14:19.557Z,75.49
2022-09-02T00:17:09.535Z,74.21
2022-09-02T00:19:57.837Z,73.94
2022-09-02T00:22:46.353Z,74.04
2022-09-02T00:25:35.123Z,74.59
2022-09-02T00:28:23.619Z,75.29
2022-09-02T00:31:12.692Z,75.38
2022-09-02T00:34:02.486Z,76.11
2022-09-02T00:36:50.887Z,76.24
2022-09-02T00:39:40.155Z,75.15
2022-09-02T00:42:28.748Z,74.49
2022-09-02T00:45:18.309Z,74.04
2022-09-02T00:48:07.337Z,74.38
2022-09-02T00:50:57.276Z,74.26
2022-09-02T00:53:47.789Z,73.90
2022-09-02T00:56:39.516Z,73.54
2022-09-02T00:59:38.022Z,73.58
2022-09-02T01:02:29.092Z,73.43
2022-09-02T01:05:20.221Z,73.75
2022-09-02T01:08:10.038Z,73.38
2022-09-02T01:10:58.826Z,73.38
2022-09-02T01:13:47.270Z,73.67
2022-09-02T01:16:42.327Z,73.76
2022-09-02T01:19:35.932Z,74.18
2022-09-02T01:22:28.580Z,73.81
2022-09-02T01:25:20.328Z,74.05
2022-09-02T01:28:14.674Z,73.91
2022-09-02T01:31:03.362Z,74.26
2022-09-02T01:33:51.755Z,74.61
2022-09-02T01:36:43.644Z,74.56
2022-09-02T01:39:33.469Z,74.72
2022-09-02T01:42:22.637Z,75.18
2022-09-02T01:45:11.864Z,75.30
2022-09-02T01:48:00.361Z,75.39
2022-09-02T01:50:50.916Z,74.91
2022-09-02T01:53:39.301Z,75.24
2022-09-02T01:56:30.096Z,75.00
2022-09-02T01:59:21.038Z,74.87
2022-09-02T02:02:09.454Z,74.96
2022-09-02T02:04:58.141Z,75.07
2022-09-02T02:07:48.175Z,75.42
2022-09-02T02:10:36.938Z,75.41
2022-09-02T02:13:28.258Z,75.30
2022-09-02T02:16:17.801Z,75.31
2022-09-02T02:19:07.089Z,75.26
2022-09-02T02:21:55.860Z,74.98
2022-09-02T02:24:44.247Z,75.18
2022-09-02T02:27:32.631Z,74.86
2022-09-02T02:30:26.480Z,74.91
2022-09-02T02:33:15.375Z,75.25
2022-09-02T02:36:04.848Z,75.31
2022-09-02T02:38:53.264Z,74.91
2022-09-02T02:41:44.885Z,75.00
2022-09-02T02:44:35.113Z,75.24
2022-09-02T02:47:26.930Z,75.22
2022-09-02T02:50:19.481Z,75.63
2022-09-02T02:53:08.887Z,75.38
2022-09-02T02:56:01.949Z,75.58
2022-09-02T02:58:50.484Z,75.73
2022-09-02T03:01:39.236Z,75.38
2022-09-02T03:04:29.314Z,76.20
2022-09-02T03:07:18.482Z,76.16
2022-09-02T03:10:09.650Z,77.14
2022-09-02T03:13:00.556Z,76.95
2022-09-02T03:15:49.555Z,76.42
2022-09-02T03:18:38.001Z,76.01
2022-09-02T03:21:27.736Z,75.62
2022-09-02T03:24:16.293Z,75.37
2022-09-02T03:27:05.158Z,75.53
2022-09-02T03:29:53.761Z,75.14
2022-09-02T03:32:42.769Z,75.53
2022-09-02T03:35:31.643Z,75.33
2022-09-02T03:38:21.609Z,75.39
2022-09-02T03:41:09.961Z,75.09
2022-09-02T03:44:00.663Z,75.71
2022-09-02T03:46:50.403Z,75.69
2022-09-02T03:49:38.869Z,75.25
2022-09-02T03:52:27.540Z,75.44
2022-09-02T03:55:19.412Z,75.55
2022-09-02T03:58:08.707Z,75.73
2022-09-02T04:00:59.532Z,76.05
2022-09-02T04:03:48.680Z,75.81
2022-09-02T04:06:38.918Z,75.93
2022-09-02T04:09:27.529Z,76.10
2022-09-02T04:12:17.274Z,76.08
2022-09-02T04:15:08.224Z,75.89
2022-09-02T04:17:57.029Z,75.77
2022-09-02T04:20:45.999Z,76.05
2022-09-02T04:23:36.840Z,75.99
2022-09-02T04:26:25.838Z,75.84
2022-09-02T04:29:18.001Z,75.94
2022-09-02T04:32:09.308Z,76.37
2022-09-02T04:34:57.977Z,76.17
2022-09-02T04:37:49.145Z,76.11
2022-09-02T04:40:40.641Z,75.79
2022-09-02T04:43:29.163Z,76.11
2022-09-02T04:46:22.858Z,75.24
2022-09-02T04:49:22.914Z,74.65
2022-09-02T04:52:14.774Z,75.06
2022-09-02T04:55:03.293Z,75.22
2022-09-02T04:57:53.217Z,75.09
2022-09-02T05:00:43.147Z,75.03
2022-09-02T05:03:35.258Z,74.65
2022-09-02T05:06:26.364Z,74.89
2022-09-02T05:09:17.306Z,74.78
2022-09-02T05:12:10.050Z,74.78
2022-09-02T05:15:05.760Z,74.69
2022-09-02T05:17:55.954Z,74.73
2022-09-02T05:20:45.680Z,74.75
2022-09-02T05:23:34.774Z,73.96
2022-09-02T05:26:23.773Z,74.15
2022-09-02T05:29:14.386Z,74.02
2022-09-02T05:32:08.202Z,73.67
2022-09-02T05:34:59.087Z,73.63
2022-09-02T05:37:48.880Z,73.30
2022-09-02T05:40:38.156Z,72.91
2022-09-02T05:43:28.452Z,73.43
2022-09-02T05:46:18.909Z,73.14
2022-09-02T05:49:07.670Z,72.65
2022-09-02T05:52:19.310Z,72.87
2022-09-02T05:55:12.499Z,71.71
2022-09-02T05:58:01.771Z,71.64
2022-09-02T06:00:50.135Z,71.25
2022-09-02T06:03:39.233Z,69.95
2022-09-02T06:06:29.738Z,69.64
2022-09-02T06:09:22.170Z,69.80
2022-09-02T06:12:13.174Z,70.01
2022-09-02T06:15:03.079Z,69.71
2022-09-02T06:17:51.579Z,70.18
2022-09-02T06:20:41.718Z,69.13
2022-09-02T06:23:30.997Z,68.86
2022-09-02T06:26:23.324Z,68.43
2022-09-02T06:29:13.656Z,68.10
2022-09-02T06:32:02.267Z,68.03
2022-09-02T06:34:55.335Z,68.19
2022-09-02T06:37:46.328Z,67.67
2022-09-02T06:40:35.338Z,68.42
2022-09-02T06:43:24.199Z,67.91
2022-09-02T06:46:30.664Z,67.27
2022-09-02T06:49:22.351Z,67.44
2022-09-02T06:52:14.397Z,66.91
2022-09-02T06:55:04.959Z,66.40
2022-09-02T06:57:53.771Z,66.62
2022-09-02T07:00:43.206Z,67.38
2022-09-02T07:03:51.514Z,66.37
2022-09-02T07:06:42.238Z,66.72
2022-09-02T07:09:32.121Z,66.28
2022-09-02T07:12:28.071Z,66.13
2022-09-02T07:15:27.596Z,65.35
2022-09-02T07:18:16.094Z,65.52
2022-09-02T07:21:06.053Z,65.05
2022-09-02T07:23:54.571Z,65.23
2022-09-02T07:26:44.142Z,65.24
2022-09-02T07:29:34.587Z,65.67
2022-09-02T07:32:23.173Z,63.99
2022-09-02T07:35:11.713Z,64.41
2022-09-02T07:38:01.698Z,63.97
2022-09-02T07:40:50.824Z,64.04
2022-09-02T07:43:49.607Z,63.45
2022-09-02T07:46:40.502Z,63.30
2022-09-02T07:50:15.228Z,62.96
2022-09-02T07:52:38.940Z,62.41
2022-09-02T07:55:31.032Z,61.55
2022-09-02T07:58:22.487Z,62.03
2022-09-02T08:01:12.043Z,60.95
2022-09-02T08:04:05.608Z,60.21
2022-09-02T08:06:57.275Z,60.10
2022-09-02T08:09:45.673Z,59.79
2022-09-02T08:12:35.509Z,59.12
2022-09-02T08:15:24.581Z,59.77
2022-09-02T08:18:21.106Z,59.49
2022-09-02T08:21:11.090Z,59.20
2022-09-02T08:24:00.506Z,57.89
2022-09-02T08:26:49.036Z,58.20
2022-09-02T08:29:38.893Z,58.59
2022-09-02T08:32:27.204Z,58.28
2022-09-02T08:35:15.640Z,56.73
2022-09-02T08:38:06.486Z,56.72
2022-09-02T08:40:54.885Z,56.53
2022-09-02T08:43:45.735Z,57.01
2022-09-02T08:46:36.461Z,57.51
2022-09-02T08:49:31.175Z,56.96
2022-09-02T08:52:29.508Z,56.08
2022-09-02T08:55:22.507Z,55.23
2022-09-02T08:58:11.592Z,54.08
2022-09-02T09:01:06.768Z,53.90
2022-09-02T09:04:12.249Z,53.76
2022-09-02T09:07:25.637Z,54.87
2022-09-02T09:10:21.614Z,53.49
2022-09-02T09:13:21.270Z,52.49
2022-09-02T09:16:20.751Z,52.10
2022-09-02T09:19:13.819Z,51.69
2022-09-02T09:22:03.579Z,51.84
2022-09-02T09:24:52.410Z,52.49
2022-09-02T09:27:41.164Z,52.15
2022-09-02T09:30:30.541Z,52.07
2022-09-02T09:33:24.107Z,51.07
2022-09-02T09:36:14.262Z,50.29
2022-09-02T09:39:21.138Z,47.93
2022-09-02T09:42:15.250Z,49.11
2022-09-02T09:45:20.227Z,49.64
2022-09-02T09:48:27.599Z,49.53
2022-09-02T09:51:17.426Z,48.87
2022-09-02T09:54:20.543Z,49.55
2022-09-02T09:57:18.724Z,50.31
2022-09-02T10:00:22.106Z,48.96
2022-09-02T10:03:23.487Z,48.23
2022-09-02T10:06:22.341Z,47.69
2022-09-02T10:09:35.757Z,48.26
2022-09-02T10:12:33.314Z,47.36
2022-09-02T10:15:30.418Z,47.42
2022-09-02T10:18:29.863Z,47.35
2022-09-02T10:21:33.382Z,48.01
2022-09-02T10:24:36.858Z,47.62
2022-09-02T10:27:34.125Z,48.04
2022-09-02T10:30:23.958Z,46.80
2022-09-02T10:33:25.766Z,46.84
2022-09-02T10:36:28.748Z,46.75
2022-09-02T10:39:30.525Z,46.59
2022-09-02T10:42:29.411Z,45.34
2022-09-02T10:45:25.150Z,44.90
2022-09-02T10:48:28.990Z,45.79
2022-09-02T10:51:24.941Z,45.58
2022-09-02T10:54:31.024Z,45.95
2022-09-02T10:57:26.287Z,45.64
2022-09-02T11:00:17.352Z,44.46
2022-09-02T11:03:18.225Z,43.63
2022-09-02T11:06:13.091Z,44.79
2022-09-02T11:09:07.548Z,44.96
2022-09-02T11:12:01.761Z,44.26
2022-09-02T11:15:00.463Z,42.56
2022-09-02T11:17:57.378Z,42.67
2022-09-02T11:20:51.983Z,42.59
2022-09-02T11:23:45.831Z,43.30
2022-09-02T11:26:40.560Z,43.78
2022-09-02T11:29:38.608Z,41.99
2022-09-02T11:32:33.399Z,42.81
2022-09-02T11:35:27.542Z,43.63
2022-09-02T11:38:32.166Z,43.12
2022-09-02T11:41:35.812Z,42.74
2022-09-02T11:45:02.703Z,42.22
2022-09-02T11:48:33.333Z,42.93
2022-09-02T11:51:40.270Z,43.42
2022-09-02T11:54:34.765Z,43.17
2022-09-02T11:57:25.925Z,42.85
2022-09-02T12:00:31.672Z,43.50
2022-09-02T12:03:46.643Z,42.68
2022-09-02T12:06:39.538Z,43.15
2022-09-02T12:13:08.134Z,41.97
2022-09-02T12:16:30.070Z,42.24
2022-09-02T12:19:26.773Z,42.60
2022-09-02T12:22:38.385Z,43.21
2022-09-02T12:25:43.217Z,43.31
2022-09-02T12:28:32.097Z,43.08
2022-09-02T12:31:42.072Z,43.66
2022-09-02T12:34:56.776Z,42.54
2022-09-02T12:37:59.561Z,42.63
2022-09-02T12:40:57.024Z,41.97
2022-09-02T12:43:54.220Z,42.46
2022-09-02T12:46:55.741Z,41.83
2022-09-02T12:49:53.609Z,41.88
2022-09-02T12:52:45.734Z,41.27
2022-09-02T12:55:36.907Z,41.00
2022-09-02T12:58:25.907Z,40.81
2022-09-02T13:01:19.029Z,40.79
2022-09-02T13:04:37.339Z,40.95
2022-09-02T13:08:02.921Z,40.87
2022-09-02T13:11:39.967Z,41.79
2022-09-02T13:15:06.022Z,41.67
2022-09-02T13:18:33.891Z,42.52
2022-09-02T13:21:49.298Z,42.75
2022-09-02T13:25:08.247Z,42.63
2022-09-02T13:28:15.000Z,42.88
2022-09-02T13:31:14.038Z,42.86
2022-09-02T13:34:05.560Z,42.25
2022-09-02T13:36:54.184Z,42.61
2022-09-02T13:39:42.538Z,42.94
2022-09-02T13:42:32.763Z,43.78
2022-09-02T13:45:24.572Z,43.40
2022-09-02T13:48:27.182Z,43.78
2022-09-02T13:51:17.380Z,43.79
2022-09-02T13:54:22.789Z,43.63
2022-09-02T13:57:14.894Z,43.59
2022-09-02T14:00:03.804Z,43.27
2022-09-02T14:03:05.718Z,43.89
2022-09-02T14:05:57.378Z,43.89
2022-09-02T14:08:46.286Z,43.73
2022-09-02T14:11:43.945Z,43.62
2022-09-02T14:14:32.903Z,43.27
2022-09-02T14:17:25.894Z,43.13
2022-09-02T14:20:21.359Z,43.32
2022-09-02T14:23:17.958Z,42.61
2022-09-02T14:26:07.150Z,42.14
2022-09-02T14:28:55.851Z,42.12
2022-09-02T14:31:45.162Z,42.39
2022-09-02T14:34:35.882Z,42.22
2022-09-02T14:37:28.691Z,42.52
2022-09-02T14:40:17.908Z,42.55
2022-09-02T14:43:13.650Z,42.83
2022-09-02T14:46:07.683Z,42.93
2022-09-02T14:49:04.156Z,42.33
2022-09-02T14:51:55.412Z,42.51
2022-09-02T14:54:48.406Z,42.13
2022-09-02T14:57:39.220Z,42.47
2022-09-02T15:00:31.384Z,42.89
2022-09-02T15:03:23.581Z,42.98
2022-09-02T15:06:15.101Z,42.67
2022-09-02T15:09:04.277Z,42.54
2022-09-02T15:11:57.629Z,42.63
2022-09-02T15:14:49.153Z,43.59
2022-09-02T15:17:37.553Z,43.56
2022-09-02T15:20:26.734Z,43.76
2022-09-02T15:23:17.532Z,43.37
2022-09-02T15:26:05.880Z,43.40
2022-09-02T15:28:57.422Z,43.86
2022-09-02T15:31:46.055Z,43.97
2022-09-02T15:34:35.499Z,44.75
2022-09-02T15:37:24.577Z,45.01
2022-09-02T15:40:13.205Z,44.69
2022-09-02T15:43:01.993Z,44.80
2022-09-02T15:45:51.825Z,44.95
2022-09-02T15:48:40.851Z,44.79
2022-09-02T15:51:29.561Z,45.13
2022-09-02T15:54:19.513Z,45.37
2022-09-02T15:57:07.921Z,45.17
2022-09-02T15:59:56.327Z,45.60
2022-09-02T16:02:46.170Z,45.03
2022-09-02T16:05:34.626Z,44.95
2022-09-02T16:08:22.993Z,45.95
2022-09-02T16:11:11.361Z,45.84
2022-09-02T16:13:59.721Z,46.02
2022-09-02T16:16:49.376Z,45.73
2022-09-02T16:19:39.292Z,46.27
2022-09-02T16:22:27.580Z,46.08
2022-09-02T16:25:16.068Z,46.55
2022-09-02T16:28:04.710Z,46.58
2022-09-02T16:30:53.267Z,46.62
2022-09-02T16:33:42.613Z,46.71
2022-09-02T16:36:33.858Z,47.12
2022-09-02T16:39:22.437Z,46.98
2022-09-02T16:42:10.819Z,47.04
2022-09-02T16:44:59.253Z,47.28
2022-09-02T16:47:47.654Z,47.71
2022-09-02T16:50:36.056Z,47.82
2022-09-02T16:53:25.728Z,47.90
2022-09-02T16:56:14.738Z,47.94
2022-09-02T16:59:05.422Z,48.27
2022-09-02T17:01:55.363Z,48.45
2022-09-02T17:04:43.856Z,48.71
2022-09-02T17:07:32.200Z,48.78
2022-09-02T17:10:21.962Z,48.84
2022-09-02T17:13:10.317Z,48.88
2022-09-02T17:15:58.716Z,48.83
2022-09-02T17:18:47.512Z,48.90
2022-09-02T17:21:37.749Z,49.25
2022-09-02T17:24:30.810Z,49.55
2022-09-02T17:27:23.487Z,49.69
2022-09-02T17:30:13.478Z,50.05
2022-09-02T17:33:02.085Z,50.50
2022-09-02T17:35:56.513Z,50.32
2022-09-02T17:38:45.645Z,50.37
2022-09-02T17:41:51.485Z,50.50
2022-09-02T17:44:42.590Z,50.57
2022-09-02T17:47:31.840Z,50.79
2022-09-02T17:50:20.262Z,50.72
2022-09-02T17:53:08.561Z,51.18
2022-09-02T17:56:06.301Z,50.92
2022-09-02T17:59:06.103Z,51.13
2022-09-02T18:02:14.137Z,51.68
2022-09-02T18:05:09.685Z,51.61
2022-09-02T18:08:06.021Z,51.79
2022-09-02T18:10:58.075Z,52.24
2022-09-02T18:13:58.045Z,52.36
2022-09-02T18:16:57.860Z,52.62
2022-09-02T18:19:58.744Z,53.08
2022-09-02T18:23:18.986Z,52.65
2022-09-02T18:26:16.267Z,53.06
2022-09-02T18:29:14.743Z,52.96
2022-09-02T18:32:13.742Z,53.11
2022-09-02T18:35:13.081Z,53.13
2022-09-02T18:38:10.112Z,53.06
2022-09-02T18:41:10.519Z,52.95
2022-09-02T18:44:11.383Z,53.05
2022-09-02T18:47:03.449Z,53.35
2022-09-02T18:49:56.184Z,53.14
2022-09-02T18:52:46.037Z,52.86
2022-09-02T18:55:36.426Z,53.09
2022-09-02T18:58:35.134Z,52.75
2022-09-02T19:01:27.362Z,52.60
2022-09-02T19:04:15.850Z,52.54
2022-09-02T19:07:30.138Z,52.88
2022-09-02T19:10:19.895Z,52.34
2022-09-02T19:13:08.413Z,52.17
2022-09-02T19:16:02.015Z,52.13
2022-09-02T19:18:53.697Z,52.34
2022-09-02T19:21:47.194Z,51.96
2022-09-02T19:24:42.769Z,52.18
2022-09-02T19:27:34.974Z,51.91
2022-09-02T19:30:24.723Z,51.85
2022-09-02T19:33:14.825Z,51.72
2022-09-02T19:36:03.566Z,51.61
2022-09-02T19:38:51.864Z,51.60
2022-09-02T19:41:40.597Z,51.74
2022-09-02T19:44:30.692Z,51.83
2022-09-02T19:50:28.677Z,51.83
2022-09-02T19:53:25.332Z,51.08
2022-09-02T19:56:14.384Z,50.86
2022-09-02T19:59:05.556Z,50.78
2022-09-02T20:01:56.364Z,50.53
2022-09-02T20:04:45.017Z,50.50
2022-09-02T20:07:33.376Z,50.59
2022-09-02T20:10:27.602Z,50.67
2022-09-02T20:13:18.015Z,50.56
2022-09-02T20:16:07.478Z,50.98
2022-09-02T20:18:57.874Z,50.93
2022-09-02T20:21:47.494Z,50.64
2022-09-02T20:24:36.147Z,50.86
2022-09-02T20:27:40.036Z,50.78
2022-09-02T20:30:34.244Z,50.99
2022-09-02T20:33:24.162Z,51.13
2022-09-02T20:36:26.319Z,51.45
2022-09-02T20:39:33.427Z,51.61
2022-09-02T20:42:39.337Z,51.62
2022-09-02T20:45:33.345Z,51.66
2022-09-02T20:48:39.582Z,51.87
2022-09-02T20:51:36.602Z,52.18
2022-09-02T20:54:36.816Z,52.47
2022-09-02T20:57:38.460Z,52.27
2022-09-02T21:00:26.782Z,52.58
2022-09-02T21:03:17.914Z,52.99
2022-09-02T21:06:09.198Z,53.05
2022-09-02T21:09:03.971Z,53.21
2022-09-02T21:12:00.516Z,52.80
2022-09-02T21:14:53.494Z,53.34
2022-09-02T21:17:48.826Z,53.34
2022-09-02T21:20:44.968Z,54.02
2022-09-02T21:23:38.616Z,54.24
2022-09-02T21:26:40.222Z,54.59
2022-09-02T21:29:33.184Z,54.56
2022-09-02T21:32:29.662Z,54.22
2022-09-02T21:35:21.356Z,54.55
2022-09-02T21:38:15.410Z,54.77
2022-09-02T21:41:21.682Z,55.13
2022-09-02T21:44:20.694Z,55.26
2022-09-02T21:47:20.837Z,55.38
2022-09-02T21:50:21.895Z,55.55
2022-09-02T21:53:19.167Z,55.42
2022-09-02T21:56:24.055Z,55.28
2022-09-02T21:59:28.476Z,55.63
2022-09-02T22:02:25.918Z,55.74
2022-09-02T22:05:27.623Z,55.61
2022-09-02T22:08:26.169Z,55.76
2022-09-02T22:11:22.355Z,56.54
2022-09-02T22:14:15.450Z,56.21
2022-09-02T22:17:14.555Z,56.60
2022-09-02T22:20:05.520Z,56.53
2022-09-02T22:22:58.676Z,56.86
2022-09-02T22:25:48.767Z,57.05
2022-09-02T22:28:43.217Z,57.32
2022-09-02T22:31:36.133Z,57.62
2022-09-02T22:34:28.289Z,58.04
2022-09-02T22:37:22.398Z,57.98
2022-09-02T22:40:14.325Z,58.04
2022-09-02T22:43:05.816Z,58.35
2022-09-02T22:46:13.605Z,58.08
2022-09-02T22:49:26.022Z,58.38
2022-09-02T22:52:44.756Z,58.10
2022-09-02T22:55:47.525Z,58.47
2022-09-02T22:58:58.606Z,58.56
2022-09-02T23:01:55.882Z,58.18
2022-09-02T23:04:58.908Z,58.66
2022-09-02T23:07:48.572Z,58.88
2022-09-02T23:10:43.729Z,58.73
2022-09-02T23:13:46.026Z,59.04
2022-09-02T23:16:48.278Z,58.98
2022-09-02T23:19:50.135Z,59.30
2022-09-02T23:23:11.164Z,59.59
2022-09-02T23:26:10.572Z,59.99
2022-09-02T23:29:26.074Z,59.28
2022-09-02T23:32:45.059Z,59.41
2022-09-02T23:35:39.444Z,59.53
2022-09-02T23:38:53.586Z,59.40
2022-09-02T23:41:42.132Z,59.54
2022-09-02T23:44:31.312Z,59.13
2022-09-02T23:47:37.778Z,59.24
2022-09-02T23:50:35.924Z,59.09
2022-09-02T23:53:25.822Z,59.04
2022-09-02T23:56:28.721Z,58.83
2022-09-02T23:59:37.464Z,58.82
